首页
METAR-TAF:

METAR-TAF

机场 :

Bullhead City, 亞利桑那州, 美国

纬度: 35-09-27N, 经度: 114-33-34W, 海拔: 212米

当前天气观测

该预报发布于13分钟前的05:55 UTC
风速5节,风向
温度 25°C
湿度 12%
气压 1009 hPa
能見度: 16.1公里
天空无云

METAR: KIFP 250555Z AUTO 08005KT 10SM CLR 25/M06 A2980 RMK AO2

时间: 23:08 (06:08 UTC)

预报

该预报发布于48分钟前的05:20 UTC
预报有效从25日的 06点(UTC)到 26日的 06点(UTC)
风速7节,风向北转西北
能見度: 10公里
少量云层高于25000英尺
从 25日的 1300点(UTC)
风速18节,风向,有时为28节阵风
能見度: 10公里
少量云层高于25000英尺
从 26日的 0300点(UTC)
风速7节,风向
能見度: 10公里
少量云层高于25000英尺

TAF: KIFP 250520Z 2506/2606 34007KT P6SM FEW250 FM251300 36018G28KT P6SM FEW250 FM260300 01007KT P6SM FEW250

超过4000个机场的气象观测和天气预报(METAR&TAF报告)。

可查询的气象台以黄色和红色小点在地图上表示。

将鼠标移到小点上方,可查看气象台名称。

然后点击查看天气观测和预报。

如需切换地图:点击带黑十字的绿色按钮放大地图;点击带横线的绿色按钮缩小地图;或者点击绿色箭头查看邻近地区的地图。


METAR-TAF: